createdAt,value
2022-08-03T00:00:26.517Z,73.20
2022-08-03T00:02:53.667Z,73.30
2022-08-03T00:05:20.709Z,73.30
2022-08-03T00:07:48.577Z,73.20
2022-08-03T00:10:17.209Z,73.20
2022-08-03T00:12:44.105Z,73.80
2022-08-03T00:15:16.392Z,73.20
2022-08-03T00:17:53.322Z,73.20
2022-08-03T00:20:22.164Z,73.30
2022-08-03T00:22:49.614Z,73.40
2022-08-03T00:25:16.503Z,73.40
2022-08-03T00:27:43.502Z,73.40
2022-08-03T00:30:10.698Z,73.50
2022-08-03T00:32:38.889Z,73.50
2022-08-03T00:35:29.349Z,73.60
2022-08-03T00:37:59.177Z,73.70
2022-08-03T00:40:26.283Z,73.80
2022-08-03T00:42:53.799Z,73.90
2022-08-03T00:45:29.507Z,74.00
2022-08-03T00:47:57.095Z,74.00
2022-08-03T00:50:25.831Z,74.10
2022-08-03T00:52:54.432Z,74.10
2022-08-03T00:55:21.679Z,74.20
2022-08-03T00:57:48.791Z,74.30
2022-08-03T01:00:19.087Z,74.40
2022-08-03T01:02:46.207Z,74.40
2022-08-03T01:05:13.808Z,74.30
2022-08-03T01:08:14.977Z,74.30
2022-08-03T01:11:04.890Z,74.30
2022-08-03T01:13:59.801Z,74.30
2022-08-03T01:16:42.119Z,74.40
2022-08-03T01:19:31.577Z,74.50
2022-08-03T01:22:42.611Z,74.50
2022-08-03T01:25:28.542Z,74.20
2022-08-03T01:28:00.228Z,74.30
2022-08-03T01:30:40.898Z,74.30
2022-08-03T01:33:15.580Z,74.20
2022-08-03T01:35:47.177Z,73.80
2022-08-03T01:38:22.219Z,73.70
2022-08-03T01:40:52.425Z,73.60
2022-08-03T01:44:28.231Z,73.50
2022-08-03T01:46:10.440Z,73.60
2022-08-03T01:48:40.032Z,73.60
2022-08-03T01:51:09.439Z,73.70
2022-08-03T01:53:38.318Z,73.70
2022-08-03T01:56:07.169Z,73.60
2022-08-03T01:58:36.579Z,73.70
2022-08-03T02:01:05.858Z,73.70
2022-08-03T02:03:38.200Z,73.70
2022-08-03T02:07:00.420Z,73.70
2022-08-03T02:09:15.443Z,73.80
2022-08-03T02:11:43.711Z,73.60
2022-08-03T02:14:10.632Z,73.60
2022-08-03T02:16:37.555Z,73.60
2022-08-03T02:19:07.434Z,73.60
2022-08-03T02:21:57.387Z,73.70
2022-08-03T02:24:24.439Z,73.70
2022-08-03T02:26:54.123Z,73.70
2022-08-03T02:29:39.476Z,73.70
2022-08-03T02:32:12.628Z,73.70
2022-08-03T02:34:41.084Z,73.80
2022-08-03T02:37:10.349Z,73.80
2022-08-03T02:39:38.868Z,73.80
2022-08-03T02:42:08.575Z,73.80
2022-08-03T02:44:37.342Z,73.90
2022-08-03T02:47:08.019Z,73.90
2022-08-03T02:49:50.627Z,74.00
2022-08-03T02:52:24.060Z,74.00
2022-08-03T02:54:54.967Z,74.00
2022-08-03T02:57:23.070Z,74.00
2022-08-03T02:59:51.683Z,74.00
2022-08-03T03:02:19.888Z,73.90
2022-08-03T03:04:55.032Z,74.00
2022-08-03T03:07:51.242Z,74.00
2022-08-03T03:10:23.882Z,74.00
2022-08-03T03:12:53.308Z,74.00
2022-08-03T03:15:20.465Z,74.00
2022-08-03T03:17:49.739Z,74.00
2022-08-03T03:20:29.002Z,73.90
2022-08-03T03:23:00.154Z,74.00
2022-08-03T03:25:34.389Z,74.10
2022-08-03T03:28:02.875Z,74.10
2022-08-03T03:30:30.234Z,74.20
2022-08-03T03:32:59.296Z,74.20
2022-08-03T03:35:27.808Z,74.20
2022-08-03T03:37:54.863Z,74.30
2022-08-03T03:40:22.446Z,74.30
2022-08-03T03:42:50.480Z,74.30
2022-08-03T03:45:17.918Z,74.40
2022-08-03T03:47:44.752Z,74.40
2022-08-03T03:50:12.564Z,74.50
2022-08-03T03:52:39.666Z,74.50
2022-08-03T03:55:07.337Z,74.60
2022-08-03T03:57:34.633Z,74.60
2022-08-03T04:00:01.474Z,74.70
2022-08-03T04:02:28.404Z,74.80
2022-08-03T04:05:13.680Z,74.80
2022-08-03T04:08:09.203Z,74.90
2022-08-03T04:11:00.185Z,75.00
2022-08-03T04:13:51.698Z,75.00
2022-08-03T04:16:21.339Z,75.00
2022-08-03T04:18:52.587Z,74.90
2022-08-03T04:21:23.479Z,74.70
2022-08-03T04:23:53.755Z,74.60
2022-08-03T04:26:23.519Z,75.20
2022-08-03T04:28:52.167Z,74.70
2022-08-03T04:31:23.120Z,74.80
2022-08-03T04:33:51.815Z,74.80
2022-08-03T04:36:22.325Z,74.70
2022-08-03T04:39:13.481Z,74.60
2022-08-03T04:42:07.692Z,74.60
2022-08-03T04:44:29.293Z,74.70
2022-08-03T04:46:57.975Z,74.60
2022-08-03T04:49:26.200Z,74.30
2022-08-03T04:51:53.236Z,74.20
2022-08-03T04:54:19.992Z,73.70
2022-08-03T04:56:46.859Z,73.40
2022-08-03T04:59:14.047Z,73.10
2022-08-03T05:01:42.448Z,73.10
2022-08-03T05:04:09.796Z,73.30
2022-08-03T05:06:36.583Z,73.60
2022-08-03T05:09:12.132Z,73.20
2022-08-03T05:11:41.371Z,73.20
2022-08-03T05:14:08.237Z,73.20
2022-08-03T05:16:35.026Z,73.10
2022-08-03T05:19:02.060Z,73.20
2022-08-03T05:21:52.564Z,73.10
2022-08-03T05:24:16.347Z,73.00
2022-08-03T05:26:43.212Z,72.70
2022-08-03T05:29:10.015Z,72.80
2022-08-03T05:31:36.827Z,72.70
2022-08-03T05:34:03.819Z,72.60
2022-08-03T05:36:30.817Z,72.50
2022-08-03T05:39:02.465Z,72.30
2022-08-03T05:41:37.071Z,72.20
2022-08-03T05:44:05.020Z,72.00
2022-08-03T05:46:32.037Z,71.90
2022-08-03T05:48:58.894Z,71.80
2022-08-03T05:51:25.675Z,71.80
2022-08-03T05:53:52.473Z,71.70
2022-08-03T05:56:24.478Z,71.70
2022-08-03T05:58:52.488Z,71.80
2022-08-03T06:01:21.902Z,71.80
2022-08-03T06:03:50.269Z,71.70
2022-08-03T06:06:17.035Z,71.60
2022-08-03T06:08:44.764Z,71.40
2022-08-03T06:11:12.460Z,71.30
2022-08-03T06:13:39.878Z,71.20
2022-08-03T06:16:06.742Z,71.00
2022-08-03T06:18:33.820Z,71.00
2022-08-03T06:21:14.316Z,71.10
2022-08-03T06:23:53.873Z,71.10
2022-08-03T06:26:23.667Z,71.10
2022-08-03T06:28:52.248Z,71.00
2022-08-03T06:31:33.348Z,71.10
2022-08-03T06:34:30.782Z,71.00
2022-08-03T06:36:52.529Z,71.10
2022-08-03T06:39:19.858Z,71.10
2022-08-03T06:41:46.740Z,71.20
2022-08-03T06:44:13.605Z,71.10
2022-08-03T06:46:40.647Z,71.20
2022-08-03T06:49:08.097Z,71.20
2022-08-03T06:52:03.276Z,71.30
2022-08-03T06:54:22.372Z,71.20
2022-08-03T06:56:49.519Z,71.10
2022-08-03T07:00:06.575Z,71.10
2022-08-03T07:02:03.835Z,71.20
2022-08-03T07:04:30.684Z,70.60
2022-08-03T07:06:57.520Z,70.80
2022-08-03T07:09:24.374Z,70.40
2022-08-03T07:11:51.152Z,70.20
2022-08-03T07:14:18.060Z,69.80
2022-08-03T07:16:44.954Z,69.80
2022-08-03T07:19:12.341Z,69.70
2022-08-03T07:21:39.178Z,69.60
2022-08-03T07:24:06.359Z,69.30
2022-08-03T07:26:33.199Z,69.30
2022-08-03T07:29:01.518Z,69.10
2022-08-03T07:31:28.340Z,68.80
2022-08-03T07:34:01.433Z,69.00
2022-08-03T07:36:28.343Z,69.50
2022-08-03T07:38:55.172Z,69.40
2022-08-03T07:41:22.318Z,69.90
2022-08-03T07:43:49.127Z,69.60
2022-08-03T07:46:16.063Z,69.10
2022-08-03T07:48:42.884Z,69.00
2022-08-03T07:51:09.679Z,68.80
2022-08-03T07:53:37.896Z,68.90
2022-08-03T07:56:14.292Z,69.10
2022-08-03T07:58:41.172Z,69.10
2022-08-03T08:01:08.064Z,69.20
2022-08-03T08:03:41.171Z,68.50
2022-08-03T08:06:19.893Z,68.00
2022-08-03T08:08:46.936Z,67.70
2022-08-03T08:11:13.827Z,67.50
2022-08-03T08:13:40.672Z,67.10
2022-08-03T08:16:07.586Z,67.10
2022-08-03T08:18:34.550Z,66.60
2022-08-03T08:21:04.500Z,66.10
2022-08-03T08:23:37.973Z,65.80
2022-08-03T08:26:09.932Z,65.20
2022-08-03T08:28:36.700Z,65.00
2022-08-03T08:31:03.769Z,64.20
2022-08-03T08:34:01.042Z,64.20
2022-08-03T08:36:18.045Z,63.80
2022-08-03T08:38:45.129Z,63.80
2022-08-03T08:41:13.189Z,63.10
2022-08-03T08:43:40.424Z,63.60
2022-08-03T08:46:12.042Z,64.20
2022-08-03T08:48:46.426Z,64.40
2022-08-03T08:51:15.629Z,64.60
2022-08-03T08:53:48.031Z,62.90
2022-08-03T08:56:16.217Z,62.90
2022-08-03T08:58:52.150Z,62.70
2022-08-03T09:01:21.988Z,62.80
2022-08-03T09:03:49.024Z,62.90
2022-08-03T09:06:16.955Z,62.50
2022-08-03T09:08:44.112Z,61.90
2022-08-03T09:11:12.028Z,62.00
2022-08-03T09:13:39.377Z,62.40
2022-08-03T09:16:11.233Z,62.50
2022-08-03T09:18:38.270Z,62.80
2022-08-03T09:21:31.322Z,62.90
2022-08-03T09:24:03.803Z,62.60
2022-08-03T09:26:34.515Z,62.10
2022-08-03T09:29:14.073Z,62.10
2022-08-03T09:31:44.902Z,62.30
2022-08-03T09:34:14.300Z,62.70
2022-08-03T09:36:47.362Z,62.50
2022-08-03T09:39:41.288Z,62.30
2022-08-03T09:42:15.070Z,61.90
2022-08-03T09:44:44.609Z,61.80
2022-08-03T09:47:13.268Z,61.90
2022-08-03T09:49:42.072Z,61.70
2022-08-03T09:52:39.470Z,61.50
2022-08-03T09:56:30.958Z,61.70
2022-08-03T09:58:10.708Z,61.20
2022-08-03T10:01:00.268Z,61.20
2022-08-03T10:03:30.283Z,61.10
2022-08-03T10:05:59.734Z,61.10
2022-08-03T10:08:27.198Z,61.30
2022-08-03T10:10:54.703Z,61.30
2022-08-03T10:13:23.398Z,61.40
2022-08-03T10:16:21.816Z,61.70
2022-08-03T10:18:37.931Z,61.50
2022-08-03T10:21:10.370Z,61.30
2022-08-03T10:23:38.786Z,61.00
2022-08-03T10:26:07.865Z,60.90
2022-08-03T10:28:46.249Z,60.50
2022-08-03T10:31:14.515Z,60.40
2022-08-03T10:33:52.887Z,61.10
2022-08-03T10:36:24.466Z,60.30
2022-08-03T10:38:53.693Z,60.20
2022-08-03T10:41:21.962Z,60.20
2022-08-03T10:43:49.230Z,60.40
2022-08-03T10:46:19.469Z,60.50
2022-08-03T10:48:48.023Z,60.20
2022-08-03T10:51:15.532Z,60.50
2022-08-03T10:53:54.804Z,60.60
2022-08-03T10:56:53.270Z,60.20
2022-08-03T10:59:46.859Z,60.00
2022-08-03T11:02:16.734Z,60.20
2022-08-03T11:04:45.217Z,59.90
2022-08-03T11:07:23.944Z,60.30
2022-08-03T11:09:53.013Z,60.30
2022-08-03T11:12:30.409Z,59.80
2022-08-03T11:14:58.800Z,59.70
2022-08-03T11:17:25.576Z,59.90
2022-08-03T11:19:57.411Z,59.80
2022-08-03T11:22:26.262Z,59.80
2022-08-03T11:24:57.051Z,59.90
2022-08-03T11:27:30.736Z,59.80
2022-08-03T11:30:06.871Z,60.40
2022-08-03T11:32:48.265Z,59.80
2022-08-03T11:35:16.759Z,59.90
2022-08-03T11:38:03.577Z,59.80
2022-08-03T11:40:54.411Z,59.40
2022-08-03T11:43:26.687Z,59.40
2022-08-03T11:46:02.025Z,59.50
2022-08-03T11:48:40.272Z,59.40
2022-08-03T11:51:18.577Z,59.40
2022-08-03T11:53:47.761Z,59.50
2022-08-03T11:56:14.546Z,59.50
2022-08-03T11:59:17.314Z,59.10
2022-08-03T12:01:41.805Z,59.20
2022-08-03T12:04:08.893Z,58.80
2022-08-03T12:06:54.815Z,58.90
2022-08-03T12:09:22.438Z,58.80
2022-08-03T12:12:00.603Z,59.10
2022-08-03T12:14:50.842Z,59.60
2022-08-03T12:17:17.111Z,59.40
2022-08-03T12:19:44.904Z,59.30
2022-08-03T12:22:11.811Z,59.20
2022-08-03T12:24:47.171Z,59.20
2022-08-03T12:27:24.964Z,58.80
2022-08-03T12:29:59.024Z,59.10
2022-08-03T12:32:27.673Z,59.20
2022-08-03T12:34:55.678Z,59.20
2022-08-03T12:37:29.818Z,59.10
2022-08-03T12:40:09.981Z,58.90
2022-08-03T12:42:39.811Z,58.90
2022-08-03T12:45:26.526Z,58.90
2022-08-03T12:48:01.575Z,59.00
2022-08-03T12:50:36.839Z,59.10
2022-08-03T12:53:08.026Z,59.70
2022-08-03T12:55:57.948Z,59.70
2022-08-03T12:58:36.001Z,59.20
2022-08-03T13:01:09.710Z,58.90
2022-08-03T13:03:43.369Z,58.90
2022-08-03T13:06:14.220Z,58.90
2022-08-03T13:08:41.512Z,58.40
2022-08-03T13:11:53.637Z,58.40
2022-08-03T13:14:19.661Z,58.10
2022-08-03T13:16:48.465Z,58.10
2022-08-03T13:19:16.200Z,58.00
2022-08-03T13:22:01.689Z,58.20
2022-08-03T13:24:31.915Z,58.40
2022-08-03T13:26:59.227Z,58.60
2022-08-03T13:29:26.047Z,58.60
2022-08-03T13:31:53.247Z,58.30
2022-08-03T13:34:23.459Z,58.30
2022-08-03T13:37:09.325Z,58.00
2022-08-03T13:39:58.055Z,58.00
2022-08-03T13:42:23.645Z,58.50
2022-08-03T13:44:50.824Z,58.40
2022-08-03T13:47:17.845Z,58.30
2022-08-03T13:49:59.815Z,58.50
2022-08-03T13:52:35.844Z,58.50
2022-08-03T13:55:05.030Z,58.50
2022-08-03T13:58:11.431Z,58.40
2022-08-03T14:00:27.497Z,58.10
2022-08-03T14:03:12.664Z,58.20
2022-08-03T14:05:41.938Z,57.90
2022-08-03T14:08:09.117Z,57.50
2022-08-03T14:10:38.808Z,57.60
2022-08-03T14:13:06.586Z,57.50
2022-08-03T14:15:37.856Z,57.40
2022-08-03T14:18:11.964Z,57.20
2022-08-03T14:20:47.849Z,57.00
2022-08-03T14:23:17.687Z,56.90
2022-08-03T14:25:52.084Z,56.70
2022-08-03T14:28:22.567Z,56.40
2022-08-03T14:30:50.555Z,56.30
2022-08-03T14:33:17.670Z,56.10
2022-08-03T14:35:44.567Z,55.80
2022-08-03T14:38:11.389Z,55.70
2022-08-03T14:40:38.219Z,55.40
2022-08-03T14:43:05.185Z,55.30
2022-08-03T14:45:32.084Z,55.40
2022-08-03T14:50:28.402Z,55.20
2022-08-03T14:50:51.591Z,55.10
2022-08-03T14:53:19.593Z,55.20
2022-08-03T14:55:50.983Z,55.10
2022-08-03T14:58:23.185Z,55.30
2022-08-03T15:00:52.202Z,55.30
2022-08-03T15:03:23.046Z,55.60
2022-08-03T15:05:54.276Z,55.90
2022-08-03T15:08:22.151Z,56.20
2022-08-03T15:10:49.500Z,56.40
2022-08-03T15:13:17.226Z,56.40
2022-08-03T15:15:44.094Z,56.70
2022-08-03T15:18:11.090Z,56.80
2022-08-03T15:20:46.694Z,56.70
2022-08-03T15:23:15.524Z,56.70
2022-08-03T15:26:06.512Z,56.90
2022-08-03T15:28:31.642Z,57.00
2022-08-03T15:30:58.781Z,57.00
2022-08-03T15:33:25.821Z,57.20
2022-08-03T15:35:53.362Z,57.40
2022-08-03T15:38:26.268Z,57.40
2022-08-03T15:40:54.764Z,57.40
2022-08-03T15:43:22.816Z,57.60
2022-08-03T15:46:12.715Z,57.80
2022-08-03T15:48:36.519Z,58.00
2022-08-03T15:51:05.055Z,58.70
2022-08-03T15:53:32.346Z,58.70
2022-08-03T15:55:59.392Z,58.50
2022-08-03T15:59:04.450Z,57.80
2022-08-03T16:01:19.868Z,57.90
2022-08-03T16:03:47.106Z,58.00
2022-08-03T16:06:13.978Z,57.70
2022-08-03T16:08:41.032Z,57.60
2022-08-03T16:11:08.115Z,57.60
2022-08-03T16:14:13.209Z,58.70
2022-08-03T16:16:21.706Z,59.10
2022-08-03T16:18:48.489Z,58.60
2022-08-03T16:21:18.493Z,58.40
2022-08-03T16:23:47.278Z,58.30
2022-08-03T16:26:14.641Z,57.70
2022-08-03T16:28:41.590Z,58.50
2022-08-03T16:31:09.209Z,58.70
2022-08-03T16:33:36.450Z,58.30
2022-08-03T16:36:03.698Z,58.90
2022-08-03T16:38:31.277Z,59.00
2022-08-03T16:40:58.432Z,59.30
2022-08-03T16:43:25.291Z,58.90
2022-08-03T16:45:52.527Z,58.70
2022-08-03T16:48:19.962Z,58.50
2022-08-03T16:50:47.490Z,58.70
2022-08-03T16:53:17.520Z,58.90
2022-08-03T16:56:00.509Z,59.10
2022-08-03T16:58:41.725Z,59.10
2022-08-03T17:01:21.666Z,59.60
2022-08-03T17:04:01.317Z,59.10
2022-08-03T17:06:35.604Z,58.60
2022-08-03T17:09:08.939Z,59.10
2022-08-03T17:11:38.952Z,59.80
2022-08-03T17:14:12.279Z,59.10
2022-08-03T17:16:39.586Z,58.80
2022-08-03T17:19:21.888Z,58.60
2022-08-03T17:22:04.289Z,59.10
2022-08-03T17:24:41.409Z,59.40
2022-08-03T17:28:42.107Z,59.50
2022-08-03T17:30:10.041Z,59.10
2022-08-03T17:32:56.610Z,58.90
2022-08-03T17:35:34.452Z,59.20
2022-08-03T17:38:06.725Z,59.10
2022-08-03T17:40:37.992Z,58.50
2022-08-03T17:44:14.509Z,58.80
2022-08-03T17:45:54.742Z,60.10
2022-08-03T17:48:25.138Z,60.20
2022-08-03T17:50:59.519Z,60.30
2022-08-03T17:53:33.199Z,60.70
2022-08-03T17:56:44.354Z,61.40
2022-08-03T17:59:51.918Z,61.80
2022-08-03T18:02:52.493Z,62.20
2022-08-03T18:05:22.148Z,62.00
2022-08-03T18:07:59.162Z,61.20
2022-08-03T18:10:34.143Z,60.80
2022-08-03T18:13:14.376Z,60.80
2022-08-03T18:15:50.558Z,60.90
2022-08-03T18:18:29.218Z,61.10
2022-08-03T18:23:52.157Z,61.70
2022-08-03T18:26:20.428Z,61.70
2022-08-03T18:28:51.832Z,61.90
2022-08-03T18:31:59.895Z,61.90
2022-08-03T18:34:17.133Z,61.70
2022-08-03T18:39:50.302Z,61.70
2022-08-03T18:42:20.359Z,61.90
2022-08-03T18:44:56.329Z,62.30
2022-08-03T18:47:52.342Z,62.10
2022-08-03T18:50:50.135Z,62.10
2022-08-03T18:54:03.393Z,62.00
2022-08-03T18:56:43.888Z,61.60
2022-08-03T18:59:30.141Z,61.90
2022-08-03T19:02:05.778Z,62.80
2022-08-03T19:04:47.605Z,63.30
2022-08-03T19:07:23.246Z,63.50
2022-08-03T19:10:03.692Z,63.60
2022-08-03T19:12:44.475Z,63.70
2022-08-03T19:15:15.617Z,63.60
2022-08-03T19:17:50.125Z,63.70
2022-08-03T19:20:25.652Z,63.90
2022-08-03T19:22:55.117Z,64.30
2022-08-03T19:25:33.386Z,65.30
2022-08-03T19:28:05.929Z,65.00
2022-08-03T19:30:38.937Z,65.30
2022-08-03T19:33:11.449Z,65.50
2022-08-03T19:35:55.420Z,65.70
2022-08-03T19:38:29.293Z,65.90
2022-08-03T19:41:00.868Z,65.90
2022-08-03T19:43:53.549Z,66.00
2022-08-03T19:46:49.872Z,66.10
2022-08-03T19:49:19.336Z,66.20
2022-08-03T19:52:01.138Z,66.40
2022-08-03T19:54:45.782Z,66.60
2022-08-03T19:57:24.395Z,66.80
2022-08-03T19:59:52.567Z,66.90
2022-08-03T20:02:26.496Z,67.10
2022-08-03T20:04:55.054Z,67.20
2022-08-03T20:07:23.858Z,67.40
2022-08-03T20:09:56.206Z,67.50
2022-08-03T20:15:14.578Z,68.10
2022-08-03T20:17:55.116Z,68.40
2022-08-03T20:20:30.224Z,68.90
2022-08-03T20:22:58.796Z,69.90
2022-08-03T20:25:38.986Z,70.20
2022-08-03T20:28:14.129Z,70.30
2022-08-03T20:30:44.245Z,70.40
2022-08-03T20:33:11.384Z,70.40
2022-08-03T20:35:38.246Z,70.40
2022-08-03T20:38:09.384Z,70.50
2022-08-03T20:40:38.278Z,70.40
2022-08-03T20:43:09.303Z,70.60
2022-08-03T20:46:01.077Z,70.70
2022-08-03T20:48:26.660Z,70.70
2022-08-03T20:50:55.432Z,70.70
2022-08-03T20:53:31.159Z,70.70
2022-08-03T20:56:10.083Z,70.70
2022-08-03T20:58:37.546Z,70.90
2022-08-03T21:01:08.589Z,71.10
2022-08-03T21:03:40.499Z,71.40
2022-08-03T21:06:12.321Z,71.80
2022-08-03T21:08:48.208Z,72.30
2022-08-03T21:11:19.053Z,72.70
2022-08-03T21:12:57.779Z,61.50
2022-08-03T21:13:04.734Z,61.50
2022-08-03T21:13:09.879Z,67.90
2022-08-03T21:14:05.866Z,72.80
2022-08-03T21:16:33.880Z,72.90
2022-08-03T21:19:03.317Z,73.00
2022-08-03T21:21:32.435Z,72.90
2022-08-03T21:24:03.561Z,72.80
2022-08-03T21:26:33.725Z,72.70
2022-08-03T21:29:02.387Z,72.70
2022-08-03T21:31:29.364Z,72.60
2022-08-03T21:33:58.425Z,72.40
2022-08-03T21:36:27.838Z,72.50
2022-08-03T21:38:56.996Z,72.90
2022-08-03T21:41:29.069Z,72.40
2022-08-03T21:43:56.492Z,72.40
2022-08-03T21:46:23.671Z,72.70
2022-08-03T21:48:56.597Z,73.10
2022-08-03T21:51:43.377Z,73.80
2022-08-03T21:54:11.629Z,74.70
2022-08-03T21:56:42.491Z,75.40
2022-08-03T21:59:17.355Z,75.50
2022-08-03T22:01:45.800Z,75.30
2022-08-03T22:04:50.222Z,75.00
2022-08-03T22:07:05.325Z,75.40
2022-08-03T22:09:34.242Z,75.30
2022-08-03T22:12:01.188Z,75.60
2022-08-03T22:14:28.214Z,75.50
2022-08-03T22:16:56.293Z,75.30
2022-08-03T22:19:23.027Z,75.20
2022-08-03T22:21:50.484Z,75.00
2022-08-03T22:24:23.976Z,75.00
2022-08-03T22:27:10.010Z,75.20
2022-08-03T22:29:38.718Z,75.20
2022-08-03T22:32:06.892Z,75.30
2022-08-03T22:34:33.821Z,75.80
2022-08-03T22:37:02.791Z,75.20
2022-08-03T22:39:30.450Z,75.20
2022-08-03T22:42:01.257Z,75.40
2022-08-03T22:44:28.325Z,75.40
2022-08-03T22:46:55.903Z,75.40
2022-08-03T22:49:22.867Z,75.30
2022-08-03T22:51:51.837Z,75.10
2022-08-03T22:54:19.049Z,75.10
2022-08-03T22:56:50.294Z,74.90
2022-08-03T22:59:40.082Z,74.80
2022-08-03T23:02:20.945Z,75.10
2022-08-03T23:04:56.841Z,75.30
2022-08-03T23:07:30.420Z,75.20
2022-08-03T23:09:58.132Z,75.10
2022-08-03T23:12:26.211Z,75.10
2022-08-03T23:14:54.755Z,75.10
2022-08-03T23:17:23.808Z,75.00
2022-08-03T23:19:52.739Z,74.90
2022-08-03T23:22:30.074Z,75.30
2022-08-03T23:24:59.024Z,75.70
2022-08-03T23:27:27.947Z,75.90
2022-08-03T23:29:57.772Z,75.70
2022-08-03T23:32:29.163Z,75.80
2022-08-03T23:35:17.442Z,75.80
2022-08-03T23:38:22.447Z,75.80
2022-08-03T23:40:33.384Z,75.90
2022-08-03T23:43:01.903Z,75.90
2022-08-03T23:45:31.700Z,75.80
2022-08-03T23:47:58.469Z,75.60
2022-08-03T23:50:28.068Z,75.50
2022-08-03T23:53:30.313Z,75.30
2022-08-03T23:56:44.592Z,75.20
2022-08-03T23:59:37.220Z,75.30
